createdAt,value
2019-03-20T00:01:09.701Z,0.60
2019-03-20T00:03:38.851Z,0.63
2019-03-20T00:06:08.105Z,0.48
2019-03-20T00:08:37.246Z,0.43
2019-03-20T00:11:06.717Z,0.43
2019-03-20T00:13:35.849Z,0.37
2019-03-20T00:16:05.026Z,0.32
2019-03-20T00:18:34.410Z,0.37
2019-03-20T00:21:03.560Z,0.29
2019-03-20T00:23:32.719Z,0.12
2019-03-20T00:26:01.870Z,0.19
2019-03-20T00:28:31.055Z,0.15
2019-03-20T00:31:00.196Z,0.13
2019-03-20T00:33:29.361Z,0.19
2019-03-20T00:35:58.503Z,0.04
2019-03-20T00:38:27.658Z,-0.01
2019-03-20T00:40:57.197Z,0.08
2019-03-20T00:43:26.407Z,-0.12
2019-03-20T00:45:55.626Z,-0.10
2019-03-20T00:48:25.374Z,0.01
2019-03-20T00:50:54.600Z,0.13
2019-03-20T00:53:23.756Z,0.18
2019-03-20T00:55:52.924Z,0.16
2019-03-20T00:58:22.158Z,0.14
2019-03-20T01:00:51.336Z,0.20
2019-03-20T01:03:20.422Z,0.08
2019-03-20T01:05:49.485Z,0.02
2019-03-20T01:08:18.593Z,0.08
2019-03-20T01:10:47.670Z,-0.01
2019-03-20T01:13:16.704Z,-0.02
2019-03-20T01:15:45.741Z,0.11
2019-03-20T01:18:14.762Z,-0.08
2019-03-20T01:20:44.177Z,0.02
2019-03-20T01:23:13.258Z,0.38
2019-03-20T01:25:42.363Z,0.31
2019-03-20T01:28:11.836Z,0.29
2019-03-20T01:30:40.960Z,0.31
2019-03-20T01:33:11.112Z,0.63
2019-03-20T01:35:40.357Z,0.31
2019-03-20T01:38:09.424Z,0.23
2019-03-20T01:40:40.342Z,0.12
2019-03-20T01:43:09.634Z,0.02
2019-03-20T01:45:38.730Z,-0.05
2019-03-20T01:48:07.833Z,0.05
2019-03-20T01:50:36.929Z,0.01
2019-03-20T01:53:06.028Z,0.11
2019-03-20T01:55:35.109Z,0.07
2019-03-20T01:58:04.275Z,-0.09
2019-03-20T02:00:33.607Z,-0.09
2019-03-20T02:03:02.703Z,-0.12
2019-03-20T02:05:36.264Z,-0.16
2019-03-20T02:08:02.671Z,0.01
2019-03-20T02:10:31.832Z,0.07
2019-03-20T02:13:00.964Z,0.10
2019-03-20T02:15:38.789Z,-0.12
2019-03-20T02:18:00.761Z,-0.40
2019-03-20T02:20:29.841Z,-0.43
2019-03-20T02:22:58.965Z,-0.38
2019-03-20T02:25:28.468Z,-0.18
2019-03-20T02:27:57.545Z,-0.27
2019-03-20T02:30:26.666Z,-0.24
2019-03-20T02:32:55.699Z,-0.32
2019-03-20T02:35:24.754Z,-0.29
2019-03-20T02:37:53.824Z,-0.43
2019-03-20T02:40:22.945Z,-0.59
2019-03-20T02:42:51.964Z,-0.51
2019-03-20T02:45:21.025Z,-0.54
2019-03-20T02:47:50.112Z,-0.46
2019-03-20T02:50:19.226Z,-0.61
2019-03-20T02:52:48.306Z,-0.66
2019-03-20T02:55:17.420Z,-0.57
2019-03-20T02:57:46.528Z,-0.49
2019-03-20T03:00:15.687Z,-0.33
2019-03-20T03:02:44.881Z,-0.61
2019-03-20T03:05:14.391Z,-0.54
2019-03-20T03:07:43.519Z,-0.59
2019-03-20T03:10:13.075Z,-0.56
2019-03-20T03:12:42.205Z,-0.71
2019-03-20T03:15:11.417Z,-0.43
2019-03-20T03:17:40.552Z,-0.69
2019-03-20T03:20:09.771Z,-0.65
2019-03-20T03:22:38.845Z,-0.84
2019-03-20T03:25:08.083Z,-0.77
2019-03-20T03:27:37.200Z,-0.72
2019-03-20T03:30:07.157Z,-0.77
2019-03-20T03:32:36.259Z,-0.93
2019-03-20T03:35:05.717Z,-1.12
2019-03-20T03:37:35.089Z,-1.04
2019-03-20T03:40:04.863Z,-1.03
2019-03-20T03:42:34.366Z,-1.06
2019-03-20T03:45:03.463Z,-0.99
2019-03-20T03:47:32.554Z,-1.03
2019-03-20T03:50:01.607Z,-1.15
2019-03-20T03:52:30.718Z,-1.07
2019-03-20T03:54:59.748Z,-1.11
2019-03-20T03:57:28.882Z,-1.16
2019-03-20T03:59:58.011Z,-1.18
2019-03-20T04:02:27.107Z,-1.10
2019-03-20T04:04:56.187Z,-1.12
2019-03-20T04:07:25.299Z,-0.98
2019-03-20T04:09:54.388Z,-1.10
2019-03-20T04:12:23.877Z,-0.82
2019-03-20T04:14:52.977Z,-0.97
2019-03-20T04:17:28.888Z,-0.85
2019-03-20T04:19:57.948Z,-1.10
2019-03-20T04:22:26.996Z,-1.07
2019-03-20T04:24:56.445Z,-0.91
2019-03-20T04:27:25.555Z,-0.97
2019-03-20T04:29:54.615Z,-0.97
2019-03-20T04:32:23.757Z,-1.07
2019-03-20T04:34:52.833Z,-1.04
2019-03-20T04:37:21.889Z,-1.08
2019-03-20T04:39:50.904Z,-1.11
2019-03-20T04:42:20.022Z,-1.11
2019-03-20T04:44:49.125Z,-1.19
2019-03-20T04:47:18.122Z,-1.09
2019-03-20T04:49:47.240Z,-1.22
2019-03-20T04:52:16.373Z,-1.09
2019-03-20T04:54:45.478Z,-1.14
2019-03-20T04:57:14.598Z,-1.18
2019-03-20T04:59:43.662Z,-1.29
2019-03-20T05:02:12.794Z,-1.32
2019-03-20T05:04:41.902Z,-1.29
2019-03-20T05:07:10.888Z,-1.34
2019-03-20T05:09:39.984Z,-1.37
2019-03-20T05:12:09.050Z,-1.34
2019-03-20T05:14:38.479Z,-1.36
2019-03-20T05:17:07.788Z,-1.38
2019-03-20T05:19:36.961Z,-1.35
2019-03-20T05:22:06.137Z,-1.37
2019-03-20T05:24:35.213Z,-1.44
2019-03-20T05:27:04.430Z,-1.48
2019-03-20T05:29:33.508Z,-1.51
2019-03-20T05:32:02.559Z,-1.48
2019-03-20T05:34:31.671Z,-1.34
2019-03-20T05:37:09.897Z,-1.47
2019-03-20T05:39:31.549Z,-1.39
2019-03-20T05:42:00.667Z,-1.33
2019-03-20T05:44:29.778Z,-1.16
2019-03-20T05:46:58.987Z,-1.33
2019-03-20T05:49:39.080Z,-1.27
2019-03-20T05:52:21.199Z,-1.24
2019-03-20T05:55:03.400Z,-1.42
2019-03-20T05:57:42.223Z,-1.26
2019-03-20T06:00:25.230Z,-1.21
2019-03-20T06:02:54.741Z,-1.09
2019-03-20T06:05:23.785Z,-1.22
2019-03-20T06:07:52.787Z,-1.15
2019-03-20T06:10:21.927Z,-1.18
2019-03-20T06:12:51.074Z,-1.22
2019-03-20T06:15:20.424Z,-0.91
2019-03-20T06:17:49.647Z,-0.83
2019-03-20T06:20:18.727Z,-0.94
2019-03-20T06:22:47.858Z,-0.94
2019-03-20T06:25:16.976Z,-0.76
2019-03-20T06:27:46.074Z,-0.91
2019-03-20T06:30:15.894Z,-0.75
2019-03-20T06:32:44.999Z,-0.72
2019-03-20T06:35:14.205Z,-0.62
2019-03-20T06:37:43.295Z,-0.40
2019-03-20T06:40:12.716Z,-0.42
2019-03-20T06:42:41.896Z,-0.56
2019-03-20T06:45:11.786Z,-0.50
2019-03-20T06:47:40.924Z,-0.40
2019-03-20T06:50:12.668Z,-0.38
2019-03-20T06:52:41.892Z,0.01
2019-03-20T06:55:11.023Z,-0.17
2019-03-20T06:57:40.159Z,-0.10
2019-03-20T07:00:43.717Z,-0.04
2019-03-20T07:03:20.117Z,-0.02
2019-03-20T07:06:13.295Z,0.09
2019-03-20T07:08:59.803Z,0.17
2019-03-20T07:11:29.028Z,0.29
2019-03-20T07:13:57.971Z,0.43
2019-03-20T07:16:27.243Z,0.63
2019-03-20T07:18:57.370Z,0.65
2019-03-20T07:21:27.267Z,0.86
2019-03-20T07:23:56.930Z,0.95
2019-03-20T07:26:28.559Z,1.03
2019-03-20T07:28:56.813Z,1.18
2019-03-20T07:31:25.930Z,1.31
2019-03-20T07:33:55.680Z,1.39
2019-03-20T07:36:25.200Z,1.51
2019-03-20T07:38:54.341Z,1.56
2019-03-20T07:41:23.370Z,1.70
2019-03-20T07:43:52.493Z,1.89
2019-03-20T07:46:21.658Z,2.02
2019-03-20T07:48:50.904Z,2.06
2019-03-20T07:51:19.959Z,2.11
2019-03-20T07:53:49.036Z,2.18
2019-03-20T07:56:18.153Z,2.75
2019-03-20T07:58:47.237Z,3.17
2019-03-20T08:01:16.347Z,3.52
2019-03-20T08:03:45.467Z,3.87
2019-03-20T08:06:14.665Z,4.07
2019-03-20T08:08:43.786Z,4.00
2019-03-20T08:11:32.010Z,4.15
2019-03-20T08:14:01.285Z,4.49
2019-03-20T08:16:30.436Z,4.32
2019-03-20T08:18:59.892Z,4.29
2019-03-20T08:21:29.027Z,4.52
2019-03-20T08:23:58.224Z,4.77
2019-03-20T08:26:27.432Z,4.72
2019-03-20T08:28:56.653Z,4.81
2019-03-20T08:31:25.804Z,4.91
2019-03-20T08:33:54.957Z,4.93
2019-03-20T08:36:24.144Z,5.00
2019-03-20T08:38:53.240Z,5.08
2019-03-20T08:41:22.419Z,5.48
2019-03-20T08:43:51.662Z,5.31
2019-03-20T08:46:20.845Z,5.37
2019-03-20T08:48:49.946Z,5.53
2019-03-20T08:51:19.177Z,5.41
2019-03-20T08:53:48.420Z,5.44
2019-03-20T08:56:17.614Z,5.62
2019-03-20T08:58:47.632Z,5.73
2019-03-20T09:01:27.845Z,5.76
2019-03-20T09:03:47.609Z,5.85
2019-03-20T09:06:16.808Z,5.98
2019-03-20T09:08:45.893Z,6.29
2019-03-20T09:11:15.080Z,6.18
2019-03-20T09:13:44.208Z,6.27
2019-03-20T09:16:13.374Z,6.18
2019-03-20T09:18:42.856Z,6.20
2019-03-20T09:21:12.026Z,6.51
2019-03-20T09:23:41.204Z,6.67
2019-03-20T09:26:10.421Z,6.79
2019-03-20T09:28:39.610Z,6.86
2019-03-20T09:31:08.741Z,6.85
2019-03-20T09:33:38.111Z,7.33
2019-03-20T09:36:07.254Z,7.58
2019-03-20T09:38:43.465Z,7.43
2019-03-20T09:41:07.236Z,7.41
2019-03-20T09:43:36.702Z,7.30
2019-03-20T09:46:05.972Z,7.31
2019-03-20T09:48:35.105Z,7.68
2019-03-20T09:51:04.221Z,7.57
2019-03-20T09:53:33.354Z,7.43
2019-03-20T09:56:02.836Z,7.73
2019-03-20T09:58:31.953Z,7.96
2019-03-20T10:01:01.185Z,7.79
2019-03-20T10:03:30.348Z,8.03
2019-03-20T10:05:59.472Z,8.09
2019-03-20T10:08:28.957Z,8.25
2019-03-20T10:10:58.032Z,8.23
2019-03-20T10:13:27.072Z,8.18
2019-03-20T10:15:56.197Z,8.26
2019-03-20T10:18:25.163Z,8.17
2019-03-20T10:20:54.264Z,8.23
2019-03-20T10:23:23.291Z,8.16
2019-03-20T10:25:52.427Z,8.12
2019-03-20T10:28:21.553Z,8.29
2019-03-20T10:30:50.970Z,8.26
2019-03-20T10:33:20.184Z,8.37
2019-03-20T10:35:50.584Z,8.62
2019-03-20T10:38:20.033Z,8.53
2019-03-20T10:40:49.230Z,8.53
2019-03-20T10:43:18.410Z,8.43
2019-03-20T10:45:47.822Z,8.32
2019-03-20T10:48:16.956Z,8.37
2019-03-20T10:50:46.141Z,8.45
2019-03-20T10:53:15.302Z,8.67
2019-03-20T10:55:44.495Z,8.72
2019-03-20T10:58:13.719Z,9.08
2019-03-20T11:00:42.898Z,9.08
2019-03-20T11:03:12.089Z,9.03
2019-03-20T11:05:41.292Z,9.24
2019-03-20T11:08:12.876Z,9.41
2019-03-20T11:10:41.186Z,9.38
2019-03-20T11:13:13.513Z,9.30
2019-03-20T11:15:42.620Z,9.29
2019-03-20T11:18:11.771Z,9.34
2019-03-20T11:20:42.192Z,9.53
2019-03-20T11:23:18.185Z,9.49
2019-03-20T11:25:49.971Z,9.67
2019-03-20T11:28:21.309Z,9.67
2019-03-20T11:31:23.998Z,9.64
2019-03-20T11:34:26.493Z,9.64
2019-03-20T11:41:01.056Z,9.65
2019-03-20T11:43:34.636Z,9.77
2019-03-20T11:46:06.606Z,9.74
2019-03-20T11:48:35.717Z,9.61
2019-03-20T11:51:04.908Z,9.64
2019-03-20T11:53:34.212Z,9.80
2019-03-20T11:56:03.402Z,9.89
2019-03-20T11:58:32.537Z,9.92
2019-03-20T12:01:04.960Z,9.97
2019-03-20T12:03:34.361Z,10.09
2019-03-20T12:06:03.498Z,10.24
2019-03-20T12:08:32.583Z,10.24
2019-03-20T12:11:01.735Z,10.24
2019-03-20T12:13:30.974Z,10.05
2019-03-20T12:16:00.126Z,9.98
2019-03-20T12:18:29.330Z,10.42
2019-03-20T12:20:58.517Z,10.44
2019-03-20T12:23:28.139Z,10.69
2019-03-20T12:26:10.386Z,10.71
2019-03-20T12:28:39.621Z,10.80
2019-03-20T12:31:15.552Z,10.62
2019-03-20T12:33:50.270Z,10.53
2019-03-20T12:36:27.311Z,10.65
2019-03-20T12:39:00.879Z,10.51
2019-03-20T12:41:32.697Z,10.68
2019-03-20T12:44:04.878Z,10.63
2019-03-20T12:46:41.727Z,10.68
2019-03-20T12:49:11.080Z,10.72
2019-03-20T12:51:42.165Z,10.79
2019-03-20T12:54:14.353Z,10.71
2019-03-20T12:56:54.495Z,10.85
2019-03-20T13:02:20.005Z,10.71
2019-03-20T13:04:51.306Z,10.98
2019-03-20T13:07:23.753Z,10.93
2019-03-20T13:09:59.568Z,10.88
2019-03-20T13:12:25.903Z,11.10
2019-03-20T13:15:33.432Z,11.04
2019-03-20T13:18:08.406Z,11.10
2019-03-20T13:20:37.579Z,11.13
2019-03-20T13:23:11.306Z,11.28
2019-03-20T13:25:42.318Z,11.29
2019-03-20T13:28:13.980Z,11.13
2019-03-20T13:30:49.766Z,11.30
2019-03-20T13:33:25.815Z,10.65
2019-03-20T13:35:50.580Z,10.63
2019-03-20T13:38:19.609Z,10.77
2019-03-20T13:40:48.877Z,11.08
2019-03-20T13:43:18.023Z,10.87
2019-03-20T13:45:47.298Z,10.94
2019-03-20T13:48:16.400Z,11.08
2019-03-20T13:50:48.213Z,11.08
2019-03-20T13:53:17.369Z,11.06
2019-03-20T13:55:46.683Z,11.31
2019-03-20T13:58:19.122Z,11.33
2019-03-20T14:00:50.774Z,10.90
2019-03-20T14:03:19.886Z,11.15
2019-03-20T14:05:49.354Z,11.09
2019-03-20T14:08:20.024Z,11.12
2019-03-20T14:10:50.852Z,11.29
2019-03-20T14:13:21.196Z,11.33
2019-03-20T14:15:50.364Z,11.53
2019-03-20T14:18:19.526Z,11.35
2019-03-20T14:20:48.798Z,11.44
2019-03-20T14:23:18.168Z,11.45
2019-03-20T14:25:47.463Z,11.67
2019-03-20T14:29:11.990Z,11.72
2019-03-20T14:31:41.211Z,11.79
2019-03-20T14:34:10.360Z,11.90
2019-03-20T14:36:39.499Z,11.82
2019-03-20T14:39:09.123Z,11.90
2019-03-20T14:41:38.274Z,11.99
2019-03-20T14:44:07.501Z,12.16
2019-03-20T14:46:36.638Z,12.29
2019-03-20T14:49:05.830Z,12.18
2019-03-20T14:51:34.941Z,12.30
2019-03-20T14:54:04.612Z,12.18
2019-03-20T14:56:33.738Z,11.93
2019-03-20T14:59:02.917Z,12.01
2019-03-20T15:01:32.026Z,12.04
2019-03-20T15:04:03.924Z,12.03
2019-03-20T15:06:33.073Z,11.84
2019-03-20T15:09:02.177Z,11.72
2019-03-20T15:11:34.128Z,11.78
2019-03-20T15:14:03.383Z,11.90
2019-03-20T15:16:42.038Z,11.65
2019-03-20T15:19:11.187Z,11.67
2019-03-20T15:21:40.396Z,11.79
2019-03-20T15:24:09.537Z,11.88
2019-03-20T15:26:38.948Z,11.72
2019-03-20T15:29:08.466Z,11.71
2019-03-20T15:31:40.827Z,11.85
2019-03-20T15:34:11.029Z,11.89
2019-03-20T15:36:40.207Z,11.77
2019-03-20T15:39:09.343Z,11.93
2019-03-20T15:41:38.539Z,11.93
2019-03-20T15:44:07.742Z,11.85
2019-03-20T15:46:36.987Z,11.76
2019-03-20T15:49:06.412Z,11.75
2019-03-20T15:51:36.056Z,11.77
2019-03-20T15:54:05.356Z,11.64
2019-03-20T15:56:34.856Z,11.74
2019-03-20T15:59:03.959Z,11.73
2019-03-20T16:01:33.111Z,11.76
2019-03-20T16:04:02.325Z,11.80
2019-03-20T16:06:31.547Z,11.66
2019-03-20T16:09:00.630Z,11.61
2019-03-20T16:11:29.837Z,11.64
2019-03-20T16:13:58.981Z,11.69
2019-03-20T16:16:31.250Z,11.60
2019-03-20T16:19:03.483Z,11.44
2019-03-20T16:21:33.024Z,11.42
2019-03-20T16:24:02.148Z,11.48
2019-03-20T16:26:31.346Z,11.40
2019-03-20T16:29:00.546Z,11.40
2019-03-20T16:31:29.951Z,11.35
2019-03-20T16:33:59.115Z,11.29
2019-03-20T16:36:28.274Z,11.29
2019-03-20T16:38:57.628Z,11.28
2019-03-20T16:41:26.819Z,11.27
2019-03-20T16:43:55.955Z,11.35
2019-03-20T16:46:26.209Z,11.30
2019-03-20T16:48:55.370Z,11.29
2019-03-20T16:51:24.524Z,11.11
2019-03-20T16:53:53.589Z,11.18
2019-03-20T16:56:22.914Z,11.28
2019-03-20T16:58:52.011Z,11.20
2019-03-20T17:01:21.122Z,11.09
2019-03-20T17:03:50.316Z,11.13
2019-03-20T17:06:19.523Z,11.13
2019-03-20T17:08:48.747Z,11.18
2019-03-20T17:11:27.413Z,11.13
2019-03-20T17:13:48.931Z,11.11
2019-03-20T17:16:20.230Z,11.05
2019-03-20T17:21:49.346Z,10.87
2019-03-20T17:24:20.620Z,11.07
2019-03-20T17:26:50.855Z,11.04
2019-03-20T17:29:21.281Z,10.96
2019-03-20T17:31:50.319Z,10.79
2019-03-20T17:34:19.533Z,10.82
2019-03-20T17:36:50.831Z,10.76
2019-03-20T17:39:20.143Z,10.68
2019-03-20T17:41:49.322Z,10.79
2019-03-20T17:44:26.797Z,10.68
2019-03-20T17:46:55.948Z,10.68
2019-03-20T17:49:25.169Z,10.47
2019-03-20T17:51:57.137Z,10.53
2019-03-20T17:54:29.013Z,10.46
2019-03-20T17:57:00.542Z,10.58
2019-03-20T17:59:30.124Z,10.43
2019-03-20T18:01:59.219Z,10.40
2019-03-20T18:04:30.413Z,10.51
2019-03-20T18:07:02.892Z,10.33
2019-03-20T18:09:34.044Z,10.26
2019-03-20T18:12:05.215Z,10.26
2019-03-20T18:14:34.524Z,10.30
2019-03-20T18:17:03.644Z,10.23
2019-03-20T18:19:51.996Z,10.11
2019-03-20T18:22:21.085Z,10.08
2019-03-20T18:24:50.131Z,10.22
2019-03-20T18:27:19.244Z,10.15
2019-03-20T18:29:48.289Z,10.19
2019-03-20T18:32:17.436Z,10.11
2019-03-20T18:34:46.522Z,9.99
2019-03-20T18:37:15.636Z,10.02
2019-03-20T18:39:45.199Z,9.97
2019-03-20T18:42:14.349Z,10.11
2019-03-20T18:44:43.604Z,9.91
2019-03-20T18:47:12.698Z,9.93
2019-03-20T18:49:41.891Z,9.95
2019-03-20T18:52:10.967Z,10.08
2019-03-20T18:54:40.426Z,10.06
2019-03-20T18:57:09.597Z,9.87
2019-03-20T18:59:38.753Z,9.76
2019-03-20T19:02:07.897Z,9.62
2019-03-20T19:04:37.080Z,9.56
2019-03-20T19:07:06.306Z,9.56
2019-03-20T19:09:35.505Z,9.46
2019-03-20T19:12:08.761Z,9.54
2019-03-20T19:14:35.558Z,9.67
2019-03-20T19:17:04.643Z,9.44
2019-03-20T19:19:33.746Z,9.44
2019-03-20T19:22:03.011Z,9.37
2019-03-20T19:24:32.030Z,9.35
2019-03-20T19:27:01.253Z,9.17
2019-03-20T19:29:30.668Z,9.20
2019-03-20T19:31:59.842Z,9.23
2019-03-20T19:34:28.898Z,9.11
2019-03-20T19:36:58.026Z,9.12
2019-03-20T19:39:27.135Z,9.03
2019-03-20T19:41:56.239Z,9.14
2019-03-20T19:44:25.580Z,9.01
2019-03-20T19:46:54.668Z,8.89
2019-03-20T19:49:26.575Z,9.00
2019-03-20T19:51:55.731Z,8.97
2019-03-20T19:54:24.859Z,8.98
2019-03-20T19:56:54.035Z,8.63
2019-03-20T19:59:23.155Z,8.63
2019-03-20T20:01:52.285Z,8.56
2019-03-20T20:04:21.452Z,8.53
2019-03-20T20:06:51.062Z,8.53
2019-03-20T20:09:20.257Z,8.42
2019-03-20T20:11:49.429Z,8.27
2019-03-20T20:14:18.642Z,8.25
2019-03-20T20:16:47.813Z,8.14
2019-03-20T20:19:17.005Z,8.11
2019-03-20T20:21:46.269Z,8.18
2019-03-20T20:24:15.290Z,8.23
2019-03-20T20:26:44.444Z,8.31
2019-03-20T20:29:13.559Z,8.37
2019-03-20T20:31:42.854Z,8.43
2019-03-20T20:34:12.016Z,8.37
2019-03-20T20:36:41.091Z,8.39
2019-03-20T20:39:10.202Z,8.52
2019-03-20T20:41:39.482Z,8.50
2019-03-20T20:44:08.551Z,8.57
2019-03-20T20:46:37.698Z,8.54
2019-03-20T20:49:06.881Z,8.54
2019-03-20T20:51:35.977Z,8.68
2019-03-20T20:54:05.038Z,8.70
2019-03-20T20:56:34.170Z,8.69
2019-03-20T20:59:03.309Z,8.66
2019-03-20T21:01:32.493Z,8.62
2019-03-20T21:04:01.559Z,8.56
2019-03-20T21:06:30.648Z,8.64
2019-03-20T21:08:59.718Z,8.60
2019-03-20T21:11:28.816Z,8.64
2019-03-20T21:13:57.814Z,8.81
2019-03-20T21:16:27.951Z,8.81
2019-03-20T21:19:33.367Z,8.58
2019-03-20T21:22:44.539Z,8.68
2019-03-20T21:25:15.375Z,8.59
2019-03-20T21:28:31.412Z,8.79
2019-03-20T21:31:33.061Z,8.69
2019-03-20T21:34:31.540Z,8.47
2019-03-20T21:37:45.182Z,8.47
2019-03-20T21:40:16.464Z,8.20
2019-03-20T21:43:21.316Z,8.20
2019-03-20T21:46:32.233Z,7.75
2019-03-20T21:49:01.864Z,7.75
2019-03-20T21:51:31.431Z,7.73
2019-03-20T21:54:42.092Z,7.74
2019-03-20T21:57:47.067Z,7.99
2019-03-20T22:01:15.532Z,7.91
2019-03-20T22:03:45.185Z,7.84
2019-03-20T22:06:51.057Z,7.72
2019-03-20T22:09:48.253Z,7.49
2019-03-20T22:12:35.255Z,7.31
2019-03-20T22:15:15.994Z,7.12
2019-03-20T22:18:26.129Z,7.16
2019-03-20T22:21:18.606Z,7.13
2019-03-20T22:24:15.227Z,7.08
2019-03-20T22:27:23.778Z,7.03
2019-03-20T22:29:53.353Z,6.94
2019-03-20T22:33:11.337Z,6.84
2019-03-20T22:35:59.657Z,6.82
2019-03-20T22:39:25.246Z,6.79
2019-03-20T22:42:25.745Z,6.77
2019-03-20T22:45:04.728Z,6.53
2019-03-20T22:48:03.344Z,6.41
2019-03-20T22:50:52.578Z,6.33
2019-03-20T22:53:47.733Z,6.31
2019-03-20T22:56:53.271Z,6.32
2019-03-20T22:59:22.881Z,6.19
2019-03-20T23:02:05.591Z,6.14
2019-03-20T23:04:38.146Z,5.97
2019-03-20T23:07:10.374Z,6.00
2019-03-20T23:09:39.081Z,6.01
2019-03-20T23:12:11.796Z,5.82
2019-03-20T23:14:41.455Z,5.94
2019-03-20T23:17:11.122Z,5.95
2019-03-20T23:19:41.545Z,5.93
2019-03-20T23:22:11.690Z,5.85
2019-03-20T23:24:41.364Z,5.83
2019-03-20T23:27:14.764Z,5.81
2019-03-20T23:29:44.371Z,5.80
2019-03-20T23:32:14.106Z,5.70
2019-03-20T23:34:43.667Z,5.63
2019-03-20T23:37:13.318Z,5.54
2019-03-20T23:39:42.948Z,5.55
2019-03-20T23:42:12.512Z,5.42
2019-03-20T23:44:42.154Z,5.50
2019-03-20T23:47:11.801Z,5.59
2019-03-20T23:49:41.418Z,5.51
2019-03-20T23:52:11.030Z,5.57
2019-03-20T23:54:49.979Z,5.55
2019-03-20T23:57:20.138Z,5.52
2019-03-20T23:59:50.298Z,5.48
